Time;durP1;ratioP1;P1;durP2;ratioP2;P2;SDS_P1;SDS_P2;PMS_P1;PMS_P2;Temp;Humidity;BMP_temperature;BMP_pressure;BME280_temperature;BME280_humidity;BME280_pressure;Samples;Min_cycle;Max_cycle;Signal;HPM_P1;HPM_P2
2023/10/05 00:01:05;;;;;;;;;4.33;3.67;;;;;;;;5077472;27;45905;-47
2023/10/05 00:03:31;;;;;;;;;5.33;5.33;;;;;;;;5073517;27;45484;-44
2023/10/05 00:06:13;;;;;;;;;6.67;5.67;;;;;;;;5076416;27;45390;-44
2023/10/05 00:08:44;;;;;;;;;7.00;6.67;;;;;;;;5073312;27;45470;-48
2023/10/05 00:11:22;;;;;;;;;8.67;5.00;;;;;;;;5076178;27;46381;-44
2023/10/05 00:13:48;;;;;;;;;7.67;6.67;;;;;;;;5076336;27;45495;-45
2023/10/05 00:16:20;;;;;;;;;4.33;4.33;;;;;;;;5074393;27;45336;-45
2023/10/05 00:18:45;;;;;;;;;6.00;6.00;;;;;;;;5071959;27;45406;-47
2023/10/05 00:21:11;;;;;;;;;6.00;6.00;;;;;;;;5075428;27;45953;-44
2023/10/05 00:23:36;;;;;;;;;7.33;5.67;;;;;;;;5075128;27;45655;-45
2023/10/05 00:26:02;;;;;;;;;6.00;6.00;;;;;;;;5071062;27;45306;-44
2023/10/05 00:28:27;;;;;;;;;4.00;4.00;;;;;;;;5071305;27;45520;-44
2023/10/05 00:30:54;;;;;;;;;6.00;6.00;;;;;;;;5074331;27;46179;-44
2023/10/05 00:33:20;;;;;;;;;6.00;4.00;;;;;;;;5077417;27;45820;-45
2023/10/05 00:35:46;;;;;;;;;6.00;6.00;;;;;;;;5076296;27;45485;-44
2023/10/05 00:38:18;;;;;;;;;5.67;5.33;;;;;;;;5073258;27;45638;-45
2023/10/05 00:43:23;;;;;;;;;10.00;7.33;;;;;;;;5064736;27;45247;-47
2023/10/05 00:45:49;;;;;;;;;6.00;5.00;;;;;;;;5075989;27;45551;-47
2023/10/05 00:48:37;;;;;;;;;6.67;5.33;;;;;;;;5075163;27;45653;-45
2023/10/05 00:51:17;;;;;;;;;5.67;5.67;;;;;;;;5074898;27;46059;-47
2023/10/05 00:53:43;;;;;;;;;5.00;5.00;;;;;;;;5077320;27;45354;-44
2023/10/05 00:56:11;;;;;;;;;8.00;6.00;;;;;;;;5067618;27;45428;-46
2023/10/05 00:58:38;;;;;;;;;8.33;6.67;;;;;;;;5070623;27;45461;-45
2023/10/05 01:01:08;;;;;;;;;7.00;5.33;;;;;;;;5069790;27;46241;-44
2023/10/05 01:03:33;;;;;;;;;5.33;5.33;;;;;;;;5073596;27;45314;-44
2023/10/05 01:06:11;;;;;;;;;5.00;5.00;;;;;;;;5075514;27;45437;-44
2023/10/05 01:08:48;;;;;;;;;7.67;7.67;;;;;;;;5073208;27;45754;-45
2023/10/05 01:11:15;;;;;;;;;3.67;2.33;;;;;;;;5073869;27;45630;-45
2023/10/05 01:13:41;;;;;;;;;6.33;6.00;;;;;;;;5074246;27;45588;-43
2023/10/05 01:16:19;;;;;;;;;8.00;6.67;;;;;;;;5074947;27;45494;-44
2023/10/05 01:18:45;;;;;;;;;8.00;7.00;;;;;;;;5069440;27;45529;-47
2023/10/05 01:21:10;;;;;;;;;7.67;6.00;;;;;;;;5072779;27;46871;-44
2023/10/05 01:23:38;;;;;;;;;10.00;10.00;;;;;;;;5076097;27;45420;-44
2023/10/05 01:26:13;;;;;;;;;7.33;6.00;;;;;;;;5072307;27;45329;-47
2023/10/05 01:28:41;;;;;;;;;9.67;9.33;;;;;;;;5066896;27;45533;-45
2023/10/05 01:31:09;;;;;;;;;7.00;7.00;;;;;;;;5076662;27;46206;-48
2023/10/05 01:33:34;;;;;;;;;9.00;6.33;;;;;;;;5068738;27;45272;-47
2023/10/05 01:35:59;;;;;;;;;7.67;6.00;;;;;;;;5070441;27;46708;-44
2023/10/05 01:38:24;;;;;;;;;7.00;5.67;;;;;;;;5074085;27;45385;-47
2023/10/05 01:40:54;;;;;;;;;6.50;6.50;;;;;;;;5078350;27;47218;-46
2023/10/05 01:43:19;;;;;;;;;10.33;6.00;;;;;;;;5089417;27;45779;-45
2023/10/05 01:45:45;;;;;;;;;5.67;5.00;;;;;;;;5069258;27;45471;-45
2023/10/05 01:48:15;;;;;;;;;3.00;0.00;;;;;;;;5075840;27;46394;-47
2023/10/05 01:50:40;;;;;;;;;8.00;4.67;;;;;;;;5075779;27;46155;-45
2023/10/05 01:53:18;;;;;;;;;6.00;5.00;;;;;;;;5071356;27;45495;-47
2023/10/05 01:55:45;;;;;;;;;7.67;5.33;;;;;;;;5074993;27;45703;-48
2023/10/05 01:58:13;;;;;;;;;8.33;6.00;;;;;;;;5077878;27;45663;-45
2023/10/05 02:00:39;;;;;;;;;5.33;5.00;;;;;;;;5079138;27;47073;-44
2023/10/05 02:03:08;;;;;;;;;4.00;3.00;;;;;;;;5079239;27;45500;-45
2023/10/05 02:05:34;;;;;;;;;5.33;5.33;;;;;;;;5075471;27;45449;-44
2023/10/05 02:07:59;;;;;;;;;4.33;4.33;;;;;;;;5075393;27;45351;-46
2023/10/05 02:10:24;;;;;;;;;4.67;2.00;;;;;;;;5073786;27;46116;-45
2023/10/05 02:12:54;;;;;;;;;7.33;6.33;;;;;;;;5075029;27;45630;-45
2023/10/05 02:15:19;;;;;;;;;8.67;5.33;;;;;;;;5074282;27;46842;-45
2023/10/05 02:17:46;;;;;;;;;5.67;4.33;;;;;;;;5076497;27;45587;-46
2023/10/05 02:20:37;;;;;;;;;6.67;4.33;;;;;;;;5070646;27;47155;-45
2023/10/05 02:22:58;;;;;;;;;5.00;3.33;;;;;;;;5071163;27;45908;-44
2023/10/05 02:25:31;;;;;;;;;6.50;5.00;;;;;;;;5065288;27;45362;-49
2023/10/05 02:27:57;;;;;;;;;6.00;5.00;;;;;;;;5076334;27;45507;-45
2023/10/05 02:30:27;;;;;;;;;5.67;3.33;;;;;;;;5074008;27;45396;-45
2023/10/05 02:32:52;;;;;;;;;4.00;4.00;;;;;;;;5073526;27;45582;-45
2023/10/05 02:35:29;;;;;;;;;5.00;4.00;;;;;;;;5075309;27;45453;-47
2023/10/05 02:37:54;;;;;;;;;4.67;4.00;;;;;;;;5073170;27;46466;-46
2023/10/05 02:41:04;;;;;;;;;3.67;3.67;;;;;;;;5073746;27;46130;-45
2023/10/05 02:43:09;;;;;;;;;4.33;4.33;;;;;;;;5068662;27;45379;-46
2023/10/05 02:45:37;;;;;;;;;2.67;2.67;;;;;;;;5072549;27;45315;-48
2023/10/05 02:48:06;;;;;;;;;3.33;3.33;;;;;;;;5080866;27;45382;-46
2023/10/05 02:50:32;;;;;;;;;7.33;4.33;;;;;;;;5078821;27;46510;-48
2023/10/05 02:52:59;;;;;;;;;5.33;3.67;;;;;;;;5079599;27;45413;-47
2023/10/05 02:55:26;;;;;;;;;1.00;1.00;;;;;;;;5077861;27;45353;-45
2023/10/05 02:57:51;;;;;;;;;4.33;4.33;;;;;;;;5080460;27;45553;-46
2023/10/05 03:00:20;;;;;;;;;3.67;3.00;;;;;;;;5078659;27;45446;-46
2023/10/05 03:02:49;;;;;;;;;4.00;4.00;;;;;;;;5077789;27;45561;-44
2023/10/05 03:05:14;;;;;;;;;5.00;3.67;;;;;;;;5079974;27;45395;-45
2023/10/05 03:07:41;;;;;;;;;3.00;3.00;;;;;;;;5081729;27;45567;-46
2023/10/05 03:10:07;;;;;;;;;3.00;3.00;;;;;;;;5076474;27;46899;-45
2023/10/05 03:12:32;;;;;;;;;4.00;2.00;;;;;;;;5079450;27;45450;-47
2023/10/05 03:15:03;;;;;;;;;5.33;4.67;;;;;;;;5076454;27;45280;-45
2023/10/05 03:17:31;;;;;;;;;3.33;3.33;;;;;;;;5075625;27;45508;-44
2023/10/05 03:19:56;;;;;;;;;2.00;2.00;;;;;;;;5076639;27;46194;-46
2023/10/05 03:22:24;;;;;;;;;3.00;2.00;;;;;;;;5074195;27;45390;-44
2023/10/05 03:24:50;;;;;;;;;3.00;2.00;;;;;;;;5078508;27;45369;-44
2023/10/05 03:27:16;;;;;;;;;2.67;2.00;;;;;;;;5067472;27;45396;-45
2023/10/05 03:29:45;;;;;;;;;3.00;3.00;;;;;;;;5062646;27;46209;-45
2023/10/05 03:34:38;;;;;;;;;6.00;4.00;;;;;;;;5073930;27;45409;-46
2023/10/05 03:37:08;;;;;;;;;3.00;3.00;;;;;;;;5077209;27;45436;-45
2023/10/05 03:39:38;;;;;;;;;4.00;4.00;;;;;;;;5067658;27;46054;-46
2023/10/05 03:42:05;;;;;;;;;3.67;3.67;;;;;;;;5067854;27;46502;-45
2023/10/05 03:44:31;;;;;;;;;4.67;4.00;;;;;;;;5075203;27;45374;-46
2023/10/05 03:46:56;;;;;;;;;5.67;4.00;;;;;;;;5079842;27;45603;-46
2023/10/05 03:49:21;;;;;;;;;6.00;4.00;;;;;;;;5079527;27;45284;-45
2023/10/05 03:51:50;;;;;;;;;4.67;4.67;;;;;;;;5079319;27;45657;-45
2023/10/05 03:54:19;;;;;;;;;5.33;5.00;;;;;;;;5072523;27;45444;-45
2023/10/05 03:56:45;;;;;;;;;6.67;4.67;;;;;;;;5070403;27;45483;-45
2023/10/05 03:59:11;;;;;;;;;10.33;4.33;;;;;;;;5068771;27;46063;-45
2023/10/05 04:01:36;;;;;;;;;4.33;4.00;;;;;;;;5070482;27;45476;-46
2023/10/05 04:04:07;;;;;;;;;4.67;4.67;;;;;;;;5068714;27;45396;-45
2023/10/05 04:06:32;;;;;;;;;6.00;4.67;;;;;;;;5079787;27;45559;-45
2023/10/05 04:08:58;;;;;;;;;3.00;3.00;;;;;;;;5073299;27;45432;-47
2023/10/05 04:11:26;;;;;;;;;7.33;4.33;;;;;;;;5071654;27;45862;-46
2023/10/05 04:13:53;;;;;;;;;4.67;4.67;;;;;;;;5078830;27;45357;-46
2023/10/05 04:16:22;;;;;;;;;4.00;3.00;;;;;;;;5071902;27;45420;-45
2023/10/05 04:18:49;;;;;;;;;3.67;3.67;;;;;;;;5076834;27;47002;-48
2023/10/05 04:21:15;;;;;;;;;4.00;3.33;;;;;;;;5068034;27;45442;-45
2023/10/05 04:23:42;;;;;;;;;4.33;3.33;;;;;;;;5074994;27;45320;-44
2023/10/05 04:26:08;;;;;;;;;4.00;4.00;;;;;;;;5076989;27;45382;-47
2023/10/05 04:28:34;;;;;;;;;4.00;4.00;;;;;;;;5072173;27;46337;-47
2023/10/05 04:31:00;;;;;;;;;5.00;4.00;;;;;;;;5068004;27;45361;-44
2023/10/05 04:33:26;;;;;;;;;3.00;3.00;;;;;;;;5076356;27;45921;-47
2023/10/05 04:35:52;;;;;;;;;4.67;3.67;;;;;;;;5075625;27;45502;-44
2023/10/05 04:38:22;;;;;;;;;3.33;3.00;;;;;;;;5076026;27;46569;-44
2023/10/05 04:40:50;;;;;;;;;3.00;2.33;;;;;;;;5076136;27;45403;-44
2023/10/05 04:43:16;;;;;;;;;2.33;2.00;;;;;;;;5078929;27;45503;-45
2023/10/05 04:45:42;;;;;;;;;7.00;4.00;;;;;;;;5072794;27;45525;-45
2023/10/05 04:48:12;;;;;;;;;2.33;2.33;;;;;;;;5074270;27;46099;-45
2023/10/05 04:50:37;;;;;;;;;4.00;3.00;;;;;;;;5064543;27;45702;-45
2023/10/05 04:53:09;;;;;;;;;5.00;3.00;;;;;;;;5068688;27;45353;-44
2023/10/05 04:55:41;;;;;;;;;3.33;3.33;;;;;;;;5068243;27;45836;-46
2023/10/05 04:58:23;;;;;;;;;3.00;3.00;;;;;;;;5071676;27;46365;-45
2023/10/05 05:00:53;;;;;;;;;6.67;3.00;;;;;;;;5076420;27;45591;-44
2023/10/05 05:08:32;;;;;;;;;3.67;3.00;;;;;;;;5074937;27;46158;-45
2023/10/05 05:10:58;;;;;;;;;3.00;3.00;;;;;;;;5073547;27;45495;-45
2023/10/05 05:13:27;;;;;;;;;4.33;2.33;;;;;;;;5073208;27;45453;-45
2023/10/05 05:15:52;;;;;;;;;2.33;2.33;;;;;;;;5073459;27;45490;-44
2023/10/05 05:18:17;;;;;;;;;5.00;2.00;;;;;;;;5074220;27;46284;-45
2023/10/05 05:20:47;;;;;;;;;5.00;5.00;;;;;;;;5072656;27;45452;-48
2023/10/05 05:23:16;;;;;;;;;3.00;3.00;;;;;;;;5075946;27;45796;-48
2023/10/05 05:25:42;;;;;;;;;2.33;2.33;;;;;;;;5073563;27;45337;-46
2023/10/05 05:28:08;;;;;;;;;3.67;3.67;;;;;;;;5068255;27;47156;-47
2023/10/05 05:30:36;;;;;;;;;4.00;4.00;;;;;;;;5070456;27;45385;-44
2023/10/05 05:33:02;;;;;;;;;5.00;3.67;;;;;;;;5071077;27;45772;-48
2023/10/05 05:35:28;;;;;;;;;3.67;3.67;;;;;;;;5078921;28;45579;-44
2023/10/05 05:37:56;;;;;;;;;2.67;2.67;;;;;;;;5079761;28;46687;-47
2023/10/05 05:40:21;;;;;;;;;5.33;3.00;;;;;;;;5071249;28;45445;-45
2023/10/05 05:42:46;;;;;;;;;3.33;3.33;;;;;;;;5066988;28;45526;-45
2023/10/05 05:45:21;;;;;;;;;3.67;3.67;;;;;;;;5071282;28;45662;-45
2023/10/05 05:47:47;;;;;;;;;4.00;3.33;;;;;;;;5081190;28;47805;-45
2023/10/05 05:50:17;;;;;;;;;4.67;3.00;;;;;;;;5081794;28;45322;-45
2023/10/05 05:52:46;;;;;;;;;7.33;5.00;;;;;;;;5077997;27;45263;-46
2023/10/05 05:55:13;;;;;;;;;6.33;5.33;;;;;;;;5074491;27;45362;-45
2023/10/05 05:57:38;;;;;;;;;5.00;3.67;;;;;;;;5071729;27;46465;-46
2023/10/05 06:00:11;;;;;;;;;5.00;5.00;;;;;;;;5082268;28;45298;-46
2023/10/05 06:02:40;;;;;;;;;5.33;4.00;;;;;;;;5080010;27;45575;-44
2023/10/05 06:05:08;;;;;;;;;6.67;4.67;;;;;;;;5081081;28;45590;-45
2023/10/05 06:07:35;;;;;;;;;5.33;4.33;;;;;;;;5080265;28;47011;-47
2023/10/05 06:10:00;;;;;;;;;4.67;4.67;;;;;;;;5071461;28;45362;-47
2023/10/05 06:12:26;;;;;;;;;5.33;4.00;;;;;;;;5072096;28;45676;-45
2023/10/05 06:14:51;;;;;;;;;4.67;4.67;;;;;;;;5071187;27;45302;-45
2023/10/05 06:17:16;;;;;;;;;5.67;5.00;;;;;;;;5061107;28;45465;-46
2023/10/05 06:19:41;;;;;;;;;7.67;7.00;;;;;;;;5079526;28;45328;-46
2023/10/05 06:22:07;;;;;;;;;7.67;6.00;;;;;;;;5078880;27;45447;-44
2023/10/05 06:24:35;;;;;;;;;6.33;5.00;;;;;;;;5078737;27;45374;-45
2023/10/05 06:27:00;;;;;;;;;9.00;5.33;;;;;;;;5076848;28;45160;-48
2023/10/05 06:29:25;;;;;;;;;9.33;6.00;;;;;;;;5075926;27;45528;-46
2023/10/05 06:31:50;;;;;;;;;5.00;5.00;;;;;;;;5074749;27;45619;-45
2023/10/05 06:34:16;;;;;;;;;5.67;5.67;;;;;;;;5073639;27;46361;-45
2023/10/05 06:36:42;;;;;;;;;9.67;5.67;;;;;;;;5083364;27;46129;-45
2023/10/05 06:39:14;;;;;;;;;8.67;7.00;;;;;;;;5068001;27;45472;-47
2023/10/05 06:41:40;;;;;;;;;6.00;5.00;;;;;;;;5073672;27;45296;-46
2023/10/05 06:44:07;;;;;;;;;6.00;6.00;;;;;;;;5077541;27;45368;-45
2023/10/05 06:46:32;;;;;;;;;4.00;4.00;;;;;;;;5070520;27;47149;-45
2023/10/05 06:48:58;;;;;;;;;9.00;6.67;;;;;;;;5073054;27;45406;-46
2023/10/05 06:51:26;;;;;;;;;6.00;4.67;;;;;;;;5080548;27;45387;-46
2023/10/05 06:53:52;;;;;;;;;11.67;6.67;;;;;;;;5078499;27;45401;-45
2023/10/05 06:56:18;;;;;;;;;6.00;4.00;;;;;;;;5065620;27;46236;-47
2023/10/05 06:58:44;;;;;;;;;6.67;6.67;;;;;;;;5069831;27;45220;-46
2023/10/05 07:01:09;;;;;;;;;6.00;6.00;;;;;;;;5071021;27;45221;-44
2023/10/05 07:03:34;;;;;;;;;7.00;5.33;;;;;;;;5070465;28;45546;-48
2023/10/05 07:06:00;;;;;;;;;5.33;5.33;;;;;;;;5080151;27;45464;-44
2023/10/05 07:08:25;;;;;;;;;6.00;6.00;;;;;;;;5076491;27;45269;-47
2023/10/05 07:10:50;;;;;;;;;8.67;5.33;;;;;;;;5079744;27;45208;-48
2023/10/05 07:13:19;;;;;;;;;6.00;6.00;;;;;;;;5077626;27;45353;-47
2023/10/05 07:15:44;;;;;;;;;6.67;6.67;;;;;;;;5074823;27;45530;-47
2023/10/05 07:18:10;;;;;;;;;10.33;5.33;;;;;;;;5076536;27;45456;-46
2023/10/05 07:20:36;;;;;;;;;6.00;6.00;;;;;;;;5070815;27;45337;-47
2023/10/05 07:23:03;;;;;;;;;9.00;5.00;;;;;;;;5076749;27;45357;-47
2023/10/05 07:25:28;;;;;;;;;6.00;5.00;;;;;;;;5074343;27;46205;-47
2023/10/05 07:27:54;;;;;;;;;9.67;8.33;;;;;;;;5079017;27;45486;-44
2023/10/05 07:30:19;;;;;;;;;6.00;6.00;;;;;;;;5080855;27;45433;-48
2023/10/05 07:32:44;;;;;;;;;6.33;4.33;;;;;;;;5075874;27;45473;-49
2023/10/05 07:35:12;;;;;;;;;8.33;7.67;;;;;;;;5075211;27;46743;-47
2023/10/05 07:37:37;;;;;;;;;9.33;7.67;;;;;;;;5069559;27;45462;-46
2023/10/05 07:40:04;;;;;;;;;10.00;8.00;;;;;;;;5071963;27;45516;-45
2023/10/05 07:42:29;;;;;;;;;8.00;8.00;;;;;;;;5078797;27;45712;-47
2023/10/05 07:44:54;;;;;;;;;8.00;7.00;;;;;;;;5069316;27;46024;-45
2023/10/05 07:47:21;;;;;;;;;8.00;7.00;;;;;;;;5074084;27;45444;-46
2023/10/05 07:49:46;;;;;;;;;7.67;7.67;;;;;;;;5072389;27;45458;-49
2023/10/05 07:52:11;;;;;;;;;9.67;9.67;;;;;;;;5077375;27;45369;-44
2023/10/05 07:54:38;;;;;;;;;5.33;5.00;;;;;;;;5079518;27;46223;-46
2023/10/05 07:57:03;;;;;;;;;9.00;9.00;;;;;;;;5074819;27;45507;-45
2023/10/05 07:59:29;;;;;;;;;10.00;8.33;;;;;;;;5080009;27;45397;-46
2023/10/05 08:01:55;;;;;;;;;8.00;6.33;;;;;;;;5071632;27;45365;-45
2023/10/05 08:04:22;;;;;;;;;7.33;6.33;;;;;;;;5068226;27;45355;-46
2023/10/05 08:06:47;;;;;;;;;6.00;5.67;;;;;;;;5080281;27;45434;-45
2023/10/05 08:09:15;;;;;;;;;7.33;7.33;;;;;;;;5079391;27;45407;-45
2023/10/05 08:11:41;;;;;;;;;5.00;5.00;;;;;;;;5075201;27;45546;-46
2023/10/05 08:14:07;;;;;;;;;5.00;5.00;;;;;;;;5077062;27;46129;-46
2023/10/05 08:16:32;;;;;;;;;7.00;6.00;;;;;;;;5076354;27;45302;-45
2023/10/05 08:18:57;;;;;;;;;8.67;5.67;;;;;;;;5075305;27;45377;-45
2023/10/05 08:21:22;;;;;;;;;11.67;9.00;;;;;;;;5071174;27;45400;-45
2023/10/05 08:23:51;;;;;;;;;10.00;9.67;;;;;;;;5075686;27;45448;-47
2023/10/05 08:26:16;;;;;;;;;16.00;11.67;;;;;;;;5073690;27;45498;-44
2023/10/05 08:28:41;;;;;;;;;10.33;10.00;;;;;;;;5078942;27;45311;-41
2023/10/05 08:31:07;;;;;;;;;11.00;11.00;;;;;;;;5071615;27;45651;-41
2023/10/05 08:33:35;;;;;;;;;9.00;9.00;;;;;;;;5077923;27;47017;-42
2023/10/05 08:36:06;;;;;;;;;9.33;7.67;;;;;;;;5074772;27;45600;-42
2023/10/05 08:38:34;;;;;;;;;9.00;8.00;;;;;;;;5072729;27;45582;-42
2023/10/05 08:41:02;;;;;;;;;11.00;9.67;;;;;;;;5074642;27;45699;-42
2023/10/05 08:43:27;;;;;;;;;13.00;9.67;;;;;;;;5076098;27;45764;-42
2023/10/05 08:46:01;;;;;;;;;11.33;9.33;;;;;;;;5078531;27;45452;-42
2023/10/05 08:48:46;;;;;;;;;10.00;9.00;;;;;;;;5073193;27;45504;-42
2023/10/05 08:51:12;;;;;;;;;9.33;9.00;;;;;;;;5070566;27;45410;-42
2023/10/05 08:53:48;;;;;;;;;10.00;8.00;;;;;;;;5073532;27;47077;-41
2023/10/05 08:56:15;;;;;;;;;7.67;6.33;;;;;;;;5072162;27;45469;-42
2023/10/05 08:58:41;;;;;;;;;5.00;5.00;;;;;;;;5072799;27;45354;-42
2023/10/05 09:01:24;;;;;;;;;4.33;4.00;;;;;;;;5071201;27;45402;-41
2023/10/05 09:03:53;;;;;;;;;7.67;5.00;;;;;;;;5073535;27;46333;-42
2023/10/05 09:06:24;;;;;;;;;4.67;4.33;;;;;;;;5076974;27;45567;-42
2023/10/05 09:09:01;;;;;;;;;3.67;3.67;;;;;;;;5075337;27;45531;-42
2023/10/05 09:11:33;;;;;;;;;6.33;4.00;;;;;;;;5073960;27;45476;-42
2023/10/05 09:14:08;;;;;;;;;7.00;5.67;;;;;;;;5078060;27;45541;-42
2023/10/05 09:16:41;;;;;;;;;5.67;5.67;;;;;;;;5076683;27;45388;-42
2023/10/05 09:19:07;;;;;;;;;8.00;5.00;;;;;;;;5077687;27;45432;-42
2023/10/05 09:21:45;;;;;;;;;5.00;5.00;;;;;;;;5074259;28;45528;-43
2023/10/05 09:24:20;;;;;;;;;4.67;3.67;;;;;;;;5069627;27;46088;-42
2023/10/05 09:26:51;;;;;;;;;4.67;4.67;;;;;;;;5064620;27;45810;-43
2023/10/05 09:29:22;;;;;;;;;5.00;5.00;;;;;;;;5076403;27;45572;-42
2023/10/05 09:31:50;;;;;;;;;6.33;5.00;;;;;;;;5076909;27;45460;-43
2023/10/05 09:34:36;;;;;;;;;8.67;8.67;;;;;;;;5074767;27;46731;-42
2023/10/05 09:37:05;;;;;;;;;5.00;5.00;;;;;;;;5075008;27;45500;-43
2023/10/05 09:39:31;;;;;;;;;5.00;4.00;;;;;;;;5075251;27;45452;-43
2023/10/05 09:42:01;;;;;;;;;5.00;5.00;;;;;;;;5078859;27;45566;-42
2023/10/05 09:44:28;;;;;;;;;5.67;4.00;;;;;;;;5077709;27;47227;-43
2023/10/05 09:46:54;;;;;;;;;2.67;2.67;;;;;;;;5074009;27;45594;-43
2023/10/05 09:49:20;;;;;;;;;4.00;4.00;;;;;;;;5073478;27;45349;-43
2023/10/05 09:51:48;;;;;;;;;6.67;3.33;;;;;;;;5075872;27;45515;-43
2023/10/05 09:54:14;;;;;;;;;3.00;3.00;;;;;;;;5074707;27;47080;-43
2023/10/05 09:56:41;;;;;;;;;2.25;2.25;;;;;;;;5071143;27;45961;-44
2023/10/05 09:59:15;;;;;;;;;4.00;3.50;;;;;;;;5076227;27;45584;-44
2023/10/05 10:01:40;;;;;;;;;2.67;2.67;;;;;;;;5067437;27;45524;-43
2023/10/05 10:04:08;;;;;;;;;3.25;2.25;;;;;;;;5075633;27;47032;-42
2023/10/05 10:06:35;;;;;;;;;3.00;2.00;;;;;;;;5072577;27;46066;-46
2023/10/05 10:09:09;;;;;;;;;29.00;27.33;;;;;;;;5072042;27;46021;-46
2023/10/05 10:11:35;;;;;;;;;5.75;4.00;;;;;;;;5076150;27;45534;-43
2023/10/05 10:14:13;;;;;;;;;5.00;3.50;;;;;;;;5076580;27;46186;-45
2023/10/05 10:16:42;;;;;;;;;2.00;2.00;;;;;;;;5077047;27;45661;-45
2023/10/05 10:19:19;;;;;;;;;2.00;2.00;;;;;;;;5078085;27;45775;-44
2023/10/05 10:21:53;;;;;;;;;1.75;1.75;;;;;;;;5077716;27;45397;-45
2023/10/05 10:24:18;;;;;;;;;2.50;2.50;;;;;;;;5079844;27;46989;-44
2023/10/05 10:26:45;;;;;;;;;1.00;1.00;;;;;;;;5077822;27;45278;-45
2023/10/05 10:29:14;;;;;;;;;5.00;3.00;;;;;;;;5078159;27;45176;-44
2023/10/05 10:31:42;;;;;;;;;3.00;2.00;;;;;;;;5080399;27;45440;-47
2023/10/05 10:34:28;;;;;;;;;4.00;4.00;;;;;;;;5076687;27;47141;-44
2023/10/05 10:36:57;;;;;;;;;3.00;1.00;;;;;;;;5075340;27;45453;-44
2023/10/05 10:39:33;;;;;;;;;3.75;3.75;;;;;;;;5081245;27;45367;-48
2023/10/05 10:42:04;;;;;;;;;1.25;1.25;;;;;;;;5081733;27;45412;-43
2023/10/05 10:44:41;;;;;;;;;3.00;1.00;;;;;;;;5076938;27;46135;-45
2023/10/05 10:47:08;;;;;;;;;0.75;0.75;;;;;;;;5080432;27;45456;-45
2023/10/05 10:49:34;;;;;;;;;1.75;1.00;;;;;;;;5078580;27;45491;-44
2023/10/05 10:52:02;;;;;;;;;1.00;1.00;;;;;;;;5077380;27;45551;-43
2023/10/05 10:54:28;;;;;;;;;2.00;2.00;;;;;;;;5076658;27;46147;-44
2023/10/05 10:56:55;;;;;;;;;4.25;3.00;;;;;;;;5071822;27;45468;-43
2023/10/05 10:59:26;;;;;;;;;3.00;3.00;;;;;;;;5080630;27;45472;-44
2023/10/05 11:01:59;;;;;;;;;4.00;1.00;;;;;;;;5068890;27;45307;-44
2023/10/05 11:04:32;;;;;;;;;1.25;1.00;;;;;;;;5068606;27;46265;-46
2023/10/05 11:07:08;;;;;;;;;4.50;1.00;;;;;;;;5077363;27;45384;-45
2023/10/05 11:09:36;;;;;;;;;2.25;2.25;;;;;;;;5073334;27;45306;-47
2023/10/05 11:12:10;;;;;;;;;1.75;1.75;;;;;;;;5073111;27;45505;-44
2023/10/05 11:14:36;;;;;;;;;3.50;2.00;;;;;;;;5073687;27;47384;-44
2023/10/05 11:17:03;;;;;;;;;1.25;0.50;;;;;;;;5072815;27;45504;-44
2023/10/05 11:19:36;;;;;;;;;1.00;1.00;;;;;;;;5068758;27;45424;-43
2023/10/05 11:22:07;;;;;;;;;2.00;2.00;;;;;;;;5068259;27;45988;-44
2023/10/05 11:24:38;;;;;;;;;1.75;1.00;;;;;;;;5072557;27;45539;-44
2023/10/05 11:29:29;;;;;;;;;1.00;1.00;;;;;;;;5079665;27;45410;-45
2023/10/05 11:32:01;;;;;;;;;2.00;2.00;;;;;;;;5079257;27;45390;-45
2023/10/05 11:34:28;;;;;;;;;3.00;2.00;;;;;;;;5074918;27;46069;-48
2023/10/05 11:36:56;;;;;;;;;1.00;1.00;;;;;;;;5075982;27;45824;-45
2023/10/05 11:39:26;;;;;;;;;1.50;1.25;;;;;;;;5076553;27;45524;-46
2023/10/05 11:41:52;;;;;;;;;0.75;0.75;;;;;;;;5078825;27;45598;-44
2023/10/05 11:44:23;;;;;;;;;1.25;1.25;;;;;;;;5063313;27;47125;-49
2023/10/05 11:46:49;;;;;;;;;1.00;1.00;;;;;;;;5073288;27;45479;-46
2023/10/05 11:49:14;;;;;;;;;1.25;1.25;;;;;;;;5077645;27;45400;-45
2023/10/05 11:51:44;;;;;;;;;0.50;0.50;;;;;;;;5073449;27;45509;-46
2023/10/05 11:54:10;;;;;;;;;1.50;1.00;;;;;;;;5077980;27;47002;-44
2023/10/05 11:56:38;;;;;;;;;1.25;1.00;;;;;;;;5076604;27;45643;-46
2023/10/05 11:59:05;;;;;;;;;1.25;1.25;;;;;;;;5072052;28;45816;-46
2023/10/05 12:01:32;;;;;;;;;2.00;2.00;;;;;;;;5066001;27;45650;-44
2023/10/05 12:03:57;;;;;;;;;2.50;2.50;;;;;;;;5074628;27;46866;-45
2023/10/05 12:06:25;;;;;;;;;4.00;2.00;;;;;;;;5080593;27;45428;-46
2023/10/05 12:09:00;;;;;;;;;1.00;1.00;;;;;;;;5074808;27;45294;-47
2023/10/05 12:11:25;;;;;;;;;1.50;1.50;;;;;;;;5075029;27;45344;-47
2023/10/05 12:13:56;;;;;;;;;1.00;1.00;;;;;;;;5074739;27;46579;-45
2023/10/05 12:16:22;;;;;;;;;2.00;1.00;;;;;;;;5081161;27;45283;-45
2023/10/05 12:18:50;;;;;;;;;3.75;2.00;;;;;;;;5074832;27;45618;-47
2023/10/05 12:21:18;;;;;;;;;1.25;1.25;;;;;;;;5075307;27;45247;-45
2023/10/05 12:23:43;;;;;;;;;1.00;1.00;;;;;;;;5080845;27;45386;-45
2023/10/05 12:26:10;;;;;;;;;2.00;0.50;;;;;;;;5070153;27;45428;-46
2023/10/05 12:28:35;;;;;;;;;3.00;1.25;;;;;;;;5074534;27;45393;-45
2023/10/05 12:31:01;;;;;;;;;1.50;1.50;;;;;;;;5077894;27;45378;-44
2023/10/05 12:33:26;;;;;;;;;1.00;1.00;;;;;;;;5076098;27;46106;-44
2023/10/05 12:35:52;;;;;;;;;4.50;1.25;;;;;;;;5074470;27;45341;-44
2023/10/05 12:38:18;;;;;;;;;1.00;1.00;;;;;;;;5080413;27;45313;-45
2023/10/05 12:40:47;;;;;;;;;0.25;0.25;;;;;;;;5078439;27;45346;-44
2023/10/05 12:43:15;;;;;;;;;2.00;2.00;;;;;;;;5076577;27;45442;-44
2023/10/05 12:45:40;;;;;;;;;2.25;1.00;;;;;;;;5074308;27;45368;-44
2023/10/05 12:48:06;;;;;;;;;2.00;2.00;;;;;;;;5077083;27;45281;-46
2023/10/05 12:50:31;;;;;;;;;0.00;0.00;;;;;;;;5072869;27;45572;-44
2023/10/05 12:52:58;;;;;;;;;0.50;0.50;;;;;;;;5080411;27;45452;-46
2023/10/05 12:55:24;;;;;;;;;3.00;1.25;;;;;;;;5076304;27;45542;-46
2023/10/05 12:57:50;;;;;;;;;2.00;2.00;;;;;;;;5078971;27;45368;-45
2023/10/05 13:00:20;;;;;;;;;1.00;1.00;;;;;;;;5076212;27;45473;-45
2023/10/05 13:02:47;;;;;;;;;0.75;0.75;;;;;;;;5074348;27;45443;-43
2023/10/05 13:05:18;;;;;;;;;1.00;1.00;;;;;;;;5075945;27;45290;-45
2023/10/05 13:07:43;;;;;;;;;1.25;1.25;;;;;;;;5079068;27;46323;-43
2023/10/05 13:10:14;;;;;;;;;1.50;1.00;;;;;;;;5071676;27;45317;-47
2023/10/05 13:12:39;;;;;;;;;1.25;1.25;;;;;;;;5076026;27;46272;-45
2023/10/05 13:15:04;;;;;;;;;1.75;1.75;;;;;;;;5075621;27;45384;-43
2023/10/05 13:17:37;;;;;;;;;2.25;2.00;;;;;;;;5075547;27;45357;-47
2023/10/05 13:20:02;;;;;;;;;1.00;1.00;;;;;;;;5079947;27;45484;-48
2023/10/05 13:22:29;;;;;;;;;1.00;1.00;;;;;;;;5079909;27;47002;-45
2023/10/05 13:24:57;;;;;;;;;2.00;2.00;;;;;;;;5078774;27;45244;-43
2023/10/05 13:27:22;;;;;;;;;1.00;1.00;;;;;;;;5076452;27;45310;-44
2023/10/05 13:29:47;;;;;;;;;2.75;2.00;;;;;;;;5078748;27;45315;-44
2023/10/05 13:32:12;;;;;;;;;3.00;1.50;;;;;;;;5076466;27;45269;-43
2023/10/05 13:34:37;;;;;;;;;1.00;1.00;;;;;;;;5077350;27;45223;-43
2023/10/05 13:37:02;;;;;;;;;3.00;1.25;;;;;;;;5080462;27;45442;-46
2023/10/05 13:39:28;;;;;;;;;1.50;1.50;;;;;;;;5076830;27;45673;-45
2023/10/05 13:41:59;;;;;;;;;1.25;1.00;;;;;;;;5079529;27;46092;-47
2023/10/05 13:44:27;;;;;;;;;1.25;1.25;;;;;;;;5073824;27;45344;-46
2023/10/05 13:46:54;;;;;;;;;1.00;1.00;;;;;;;;5076367;27;45235;-48
2023/10/05 13:49:21;;;;;;;;;1.75;1.75;;;;;;;;5076846;27;45309;-44
2023/10/05 13:51:50;;;;;;;;;3.00;1.00;;;;;;;;5071143;27;46365;-45
2023/10/05 13:54:18;;;;;;;;;2.00;1.50;;;;;;;;5074598;28;45728;-45
2023/10/05 13:56:43;;;;;;;;;2.00;1.00;;;;;;;;5077674;28;45433;-43
2023/10/05 13:59:17;;;;;;;;;2.00;2.00;;;;;;;;5079445;27;45345;-43
2023/10/05 14:01:43;;;;;;;;;2.00;1.00;;;;;;;;5078962;27;46396;-43
2023/10/05 14:04:09;;;;;;;;;2.00;2.00;;;;;;;;5079037;28;45428;-45
2023/10/05 14:06:35;;;;;;;;;2.00;2.00;;;;;;;;5079815;27;45290;-44
2023/10/05 14:09:05;;;;;;;;;2.50;1.50;;;;;;;;5082619;27;45558;-47
2023/10/05 14:11:31;;;;;;;;;2.75;1.00;;;;;;;;5079809;27;46305;-45
2023/10/05 14:13:56;;;;;;;;;2.75;2.00;;;;;;;;5079209;27;45291;-48
2023/10/05 14:16:22;;;;;;;;;2.00;0.25;;;;;;;;5079995;27;45576;-45
2023/10/05 14:18:47;;;;;;;;;1.75;1.75;;;;;;;;5078601;27;45745;-44
2023/10/05 14:21:16;;;;;;;;;2.75;1.75;;;;;;;;5077155;27;45364;-48
2023/10/05 14:23:43;;;;;;;;;6.00;2.25;;;;;;;;5082259;27;45309;-44
2023/10/05 14:26:08;;;;;;;;;1.00;1.00;;;;;;;;5076905;27;45361;-45
2023/10/05 14:28:33;;;;;;;;;2.00;2.00;;;;;;;;5078941;27;45225;-44
2023/10/05 14:30:58;;;;;;;;;3.00;2.00;;;;;;;;5077839;27;46369;-46
2023/10/05 14:33:26;;;;;;;;;1.00;1.00;;;;;;;;5081656;27;45381;-44
2023/10/05 14:35:53;;;;;;;;;4.75;1.50;;;;;;;;5078527;27;45256;-48
2023/10/05 14:38:19;;;;;;;;;1.75;1.00;;;;;;;;5074665;27;45340;-46
2023/10/05 14:40:45;;;;;;;;;1.00;1.00;;;;;;;;5079603;27;46184;-46
2023/10/05 14:43:12;;;;;;;;;2.25;2.00;;;;;;;;5080642;27;45389;-45
2023/10/05 14:45:43;;;;;;;;;4.00;2.75;;;;;;;;5077880;27;45310;-44
2023/10/05 14:48:08;;;;;;;;;2.00;2.00;;;;;;;;5067282;27;45519;-45
2023/10/05 14:50:33;;;;;;;;;1.75;1.50;;;;;;;;5073696;27;45933;-47
2023/10/05 14:52:59;;;;;;;;;2.00;2.00;;;;;;;;5071900;27;45370;-48
2023/10/05 14:55:25;;;;;;;;;2.33;2.33;;;;;;;;5063161;27;45778;-47
2023/10/05 14:57:51;;;;;;;;;1.75;1.75;;;;;;;;5079889;27;45374;-45
2023/10/05 15:00:16;;;;;;;;;1.25;1.25;;;;;;;;5077678;27;46601;-44